createdAt,value
2018-07-14T00:02:24.981Z,1.00
2018-07-14T00:04:57.556Z,1.00
2018-07-14T00:07:30.076Z,1.00
2018-07-14T00:10:02.356Z,1.00
2018-07-14T00:12:34.209Z,1.00
2018-07-14T00:15:06.759Z,1.00
2018-07-14T00:17:39.447Z,1.00
2018-07-14T00:20:12.241Z,1.00
2018-07-14T00:22:44.945Z,1.00
2018-07-14T00:25:21.745Z,1.00
2018-07-14T00:27:53.731Z,1.00
2018-07-14T00:30:26.562Z,1.00
2018-07-14T00:32:59.210Z,1.00
2018-07-14T00:35:31.639Z,1.00
2018-07-14T00:38:04.102Z,1.00
2018-07-14T00:40:36.778Z,1.00
2018-07-14T00:43:09.332Z,1.00
2018-07-14T00:45:42.040Z,1.00
2018-07-14T00:48:14.633Z,1.00
2018-07-14T00:50:46.619Z,1.00
2018-07-14T00:53:19.295Z,1.00
2018-07-14T00:55:51.768Z,1.00
2018-07-14T00:58:24.032Z,1.00
2018-07-14T01:00:56.531Z,1.00
2018-07-14T01:03:29.045Z,1.00
2018-07-14T01:06:01.723Z,1.00
2018-07-14T01:08:35.508Z,1.00
2018-07-14T01:11:07.848Z,1.00
2018-07-14T01:13:41.437Z,1.00
2018-07-14T01:16:14.696Z,1.00
2018-07-14T01:18:47.054Z,1.00
2018-07-14T01:21:19.808Z,1.00
2018-07-14T01:23:51.669Z,1.00
2018-07-14T01:26:23.664Z,1.00
2018-07-14T01:28:56.199Z,1.00
2018-07-14T01:31:28.699Z,1.00
2018-07-14T01:34:01.483Z,1.00
2018-07-14T01:36:34.069Z,1.00
2018-07-14T01:39:07.963Z,1.00
2018-07-14T01:41:40.366Z,1.00
2018-07-14T01:44:12.700Z,1.00
2018-07-14T01:46:45.130Z,1.00
2018-07-14T01:49:17.634Z,1.00
2018-07-14T01:51:49.963Z,1.00
2018-07-14T01:54:22.605Z,1.00
2018-07-14T01:56:55.040Z,1.00
2018-07-14T01:59:27.120Z,1.00
2018-07-14T02:01:59.699Z,1.00
2018-07-14T02:04:31.951Z,1.00
2018-07-14T02:07:04.593Z,1.00
2018-07-14T02:09:37.318Z,1.00
2018-07-14T02:12:10.067Z,1.00
2018-07-14T02:14:42.600Z,1.00
2018-07-14T02:17:15.222Z,1.00
2018-07-14T02:19:47.606Z,1.00
2018-07-14T02:22:20.364Z,1.00
2018-07-14T02:24:52.516Z,1.00
2018-07-14T02:27:24.673Z,1.00
2018-07-14T02:29:57.036Z,1.00
2018-07-14T02:32:29.652Z,1.00
2018-07-14T02:35:01.994Z,1.00
2018-07-14T02:37:34.382Z,1.00
2018-07-14T02:40:06.909Z,1.00
2018-07-14T02:42:39.460Z,1.00
2018-07-14T02:45:11.857Z,1.00
2018-07-14T02:47:44.256Z,1.00
2018-07-14T02:50:16.522Z,1.00
2018-07-14T02:52:48.662Z,1.00
2018-07-14T02:55:21.236Z,1.00
2018-07-14T02:57:53.628Z,1.00
2018-07-14T03:00:25.774Z,1.00
2018-07-14T03:02:58.426Z,1.00
2018-07-14T03:05:30.735Z,1.00
2018-07-14T03:08:03.109Z,1.00
2018-07-14T03:10:35.555Z,1.00
2018-07-14T03:13:08.072Z,1.00
2018-07-14T03:15:40.118Z,1.00
2018-07-14T03:18:12.567Z,1.00
2018-07-14T03:20:45.109Z,1.00
2018-07-14T03:23:17.551Z,1.00
2018-07-14T03:25:50.092Z,1.00
2018-07-14T03:28:22.707Z,1.00
2018-07-14T03:30:55.225Z,1.00
2018-07-14T03:33:27.636Z,1.00
2018-07-14T03:36:00.220Z,1.00
2018-07-14T03:38:32.604Z,1.00
2018-07-14T03:41:05.025Z,1.20
2018-07-14T03:43:37.662Z,1.80
2018-07-14T03:46:09.811Z,1.90
2018-07-14T03:48:41.840Z,2.60
2018-07-14T03:51:14.272Z,2.70
2018-07-14T03:53:46.434Z,2.60
2018-07-14T03:56:19.008Z,2.90
2018-07-14T03:58:52.008Z,2.50
2018-07-14T04:01:24.335Z,3.00
2018-07-14T04:03:56.721Z,3.10
2018-07-14T04:06:29.401Z,2.90
2018-07-14T04:09:01.756Z,3.70
2018-07-14T04:11:34.609Z,3.70
2018-07-14T04:14:07.575Z,3.50
2018-07-14T04:16:40.314Z,3.60
2018-07-14T04:19:13.442Z,3.90
2018-07-14T04:21:46.618Z,4.20
2018-07-14T04:24:18.749Z,4.70
2018-07-14T04:26:51.217Z,4.60
2018-07-14T04:29:23.529Z,5.10
2018-07-14T04:31:55.986Z,5.50
2018-07-14T04:34:28.744Z,6.00
2018-07-14T04:37:01.264Z,6.40
2018-07-14T04:39:33.844Z,6.50
2018-07-14T04:42:07.252Z,6.50
2018-07-14T04:44:40.078Z,7.00
2018-07-14T04:47:12.756Z,7.60
2018-07-14T04:49:45.298Z,7.80
2018-07-14T04:54:49.074Z,8.50
2018-07-14T04:57:21.690Z,8.60
2018-07-14T04:59:54.423Z,9.20
2018-07-14T05:02:27.239Z,9.70
2018-07-14T05:04:59.673Z,10.00
2018-07-14T05:07:32.118Z,10.30
2018-07-14T05:10:04.360Z,10.90
2018-07-14T05:12:36.922Z,11.30
2018-07-14T05:15:09.874Z,11.80
2018-07-14T05:17:42.467Z,11.80
2018-07-14T05:20:14.686Z,12.60
2018-07-14T05:22:47.022Z,12.60
2018-07-14T05:25:19.325Z,12.90
2018-07-14T05:27:51.860Z,12.70
2018-07-14T05:30:24.086Z,13.20
2018-07-14T05:32:56.201Z,13.60
2018-07-14T05:35:28.751Z,13.70
2018-07-14T05:38:01.099Z,13.70
2018-07-14T05:40:33.712Z,14.50
2018-07-14T05:43:06.550Z,14.30
2018-07-14T05:45:38.843Z,15.00
2018-07-14T05:48:11.278Z,15.20
2018-07-14T05:50:43.391Z,15.40
2018-07-14T05:53:15.843Z,15.60
2018-07-14T05:55:48.347Z,15.80
2018-07-14T05:58:20.590Z,16.10
2018-07-14T06:00:52.898Z,16.10
2018-07-14T06:03:25.397Z,16.20
2018-07-14T06:05:57.582Z,16.70
2018-07-14T06:08:29.673Z,16.70
2018-07-14T06:11:02.032Z,16.70
2018-07-14T06:13:34.826Z,17.10
2018-07-14T06:16:07.405Z,17.00
2018-07-14T06:18:40.022Z,17.20
2018-07-14T06:21:12.391Z,17.40
2018-07-14T06:23:44.764Z,17.20
2018-07-14T06:26:17.056Z,17.50
2018-07-14T06:28:49.748Z,17.40
2018-07-14T06:31:22.123Z,17.30
2018-07-14T06:33:54.768Z,17.50
2018-07-14T06:36:26.928Z,17.70
2018-07-14T06:38:59.503Z,18.10
2018-07-14T06:41:32.027Z,18.20
2018-07-14T06:44:04.533Z,18.40
2018-07-14T06:46:36.948Z,18.40
2018-07-14T06:49:09.889Z,18.50
2018-07-14T06:51:42.263Z,18.10
2018-07-14T06:54:14.632Z,18.10
2018-07-14T06:56:46.809Z,18.30
2018-07-14T06:59:19.083Z,18.30
2018-07-14T07:04:22.860Z,19.10
2018-07-14T07:06:55.266Z,18.90
2018-07-14T07:09:27.514Z,19.20
2018-07-14T07:12:01.851Z,18.90
2018-07-14T07:14:34.409Z,19.10
2018-07-14T07:17:06.577Z,19.00
2018-07-14T07:19:39.154Z,19.60
2018-07-14T07:22:12.328Z,19.80
2018-07-14T07:24:44.584Z,20.00
2018-07-14T07:27:17.060Z,19.90
2018-07-14T07:29:49.453Z,20.30
2018-07-14T07:32:21.911Z,20.50
2018-07-14T07:34:54.226Z,21.00
2018-07-14T07:37:26.945Z,20.80
2018-07-14T07:39:59.178Z,20.70
2018-07-14T07:42:31.651Z,21.20
2018-07-14T07:45:03.978Z,21.30
2018-07-14T07:47:36.180Z,21.30
2018-07-14T07:50:08.531Z,21.20
2018-07-14T07:52:41.220Z,21.80
2018-07-14T07:55:13.839Z,21.80
2018-07-14T07:57:46.278Z,21.70
2018-07-14T08:00:18.711Z,22.00
2018-07-14T08:02:50.967Z,22.10
2018-07-14T08:05:23.468Z,22.40
2018-07-14T08:07:55.902Z,22.40
2018-07-14T08:10:28.230Z,22.70
2018-07-14T08:13:00.512Z,22.80
2018-07-14T08:15:33.285Z,23.00
2018-07-14T08:18:05.493Z,23.00
2018-07-14T08:20:38.267Z,23.70
2018-07-14T08:23:10.761Z,24.00
2018-07-14T08:25:43.213Z,24.00
2018-07-14T08:28:15.338Z,24.40
2018-07-14T08:30:48.078Z,24.90
2018-07-14T08:33:20.479Z,24.70
2018-07-14T08:35:52.684Z,25.50
2018-07-14T08:38:25.260Z,25.30
2018-07-14T08:40:57.798Z,25.50
2018-07-14T08:43:30.419Z,25.40
2018-07-14T08:46:02.938Z,25.50
2018-07-14T08:48:35.356Z,25.70
2018-07-14T08:51:07.910Z,26.60
2018-07-14T08:53:40.283Z,26.00
2018-07-14T08:56:13.048Z,26.20
2018-07-14T08:58:45.454Z,26.20
2018-07-14T09:01:17.787Z,26.30
2018-07-14T09:03:50.075Z,26.60
2018-07-14T09:06:22.442Z,26.80
2018-07-14T09:08:54.628Z,26.70
2018-07-14T09:11:26.978Z,26.90
2018-07-14T09:13:59.616Z,27.20
2018-07-14T09:16:32.168Z,27.60
2018-07-14T09:19:04.669Z,27.90
2018-07-14T09:21:37.071Z,28.30
2018-07-14T09:24:09.671Z,28.60
2018-07-14T09:26:42.201Z,28.70
2018-07-14T09:29:14.605Z,28.60
2018-07-14T09:31:47.333Z,28.80
2018-07-14T09:34:19.771Z,29.30
2018-07-14T09:36:51.972Z,29.50
2018-07-14T09:39:24.908Z,29.80
2018-07-14T09:41:57.488Z,29.80
2018-07-14T09:44:29.810Z,29.70
2018-07-14T09:47:02.218Z,29.70
2018-07-14T09:49:34.399Z,29.80
2018-07-14T09:52:06.555Z,29.90
2018-07-14T09:54:38.975Z,30.20
2018-07-14T09:57:11.269Z,30.20
2018-07-14T09:59:44.502Z,30.30
2018-07-14T10:02:17.071Z,30.60
2018-07-14T10:04:49.241Z,30.80
2018-07-14T10:07:21.827Z,31.10
2018-07-14T10:09:54.233Z,31.40
2018-07-14T10:12:26.392Z,31.50
2018-07-14T10:14:58.809Z,31.80
2018-07-14T10:17:31.292Z,32.20
2018-07-14T10:20:03.483Z,32.20
2018-07-14T10:22:36.725Z,32.30
2018-07-14T10:25:09.292Z,32.40
2018-07-14T10:27:42.013Z,32.40
2018-07-14T10:30:14.317Z,33.10
2018-07-14T10:32:46.623Z,33.20
2018-07-14T10:35:18.986Z,33.10
2018-07-14T10:37:51.425Z,33.40
2018-07-14T10:40:23.976Z,32.80
2018-07-14T10:42:56.042Z,32.60
2018-07-14T10:45:28.430Z,33.40
2018-07-14T10:48:00.735Z,34.60
2018-07-14T10:50:32.970Z,34.60
2018-07-14T10:55:36.564Z,34.80
2018-07-14T10:58:08.792Z,34.40
2018-07-14T11:00:41.305Z,34.70
2018-07-14T11:03:13.640Z,35.80
2018-07-14T11:05:45.855Z,35.70
2018-07-14T11:08:18.372Z,36.00
2018-07-14T11:10:50.861Z,36.00
2018-07-14T11:13:23.105Z,36.80
2018-07-14T11:15:55.279Z,36.80
2018-07-14T11:18:27.973Z,36.90
2018-07-14T11:21:00.194Z,36.90
2018-07-14T11:23:32.402Z,37.90
2018-07-14T11:26:04.922Z,38.10
2018-07-14T11:28:37.233Z,38.00
2018-07-14T11:31:09.520Z,38.70
2018-07-14T11:33:41.781Z,39.70
2018-07-14T11:36:14.181Z,40.20
2018-07-14T11:38:46.540Z,40.30
2018-07-14T11:41:18.939Z,40.60
2018-07-14T11:43:51.292Z,41.00
2018-07-14T11:46:23.616Z,41.30
2018-07-14T11:48:55.944Z,41.70
2018-07-14T11:51:28.172Z,41.10
2018-07-14T11:54:00.499Z,41.40
2018-07-14T11:56:32.853Z,41.90
2018-07-14T11:59:05.163Z,41.70
2018-07-14T12:01:37.657Z,41.60
2018-07-14T12:04:10.100Z,42.00
2018-07-14T12:06:42.484Z,41.40
2018-07-14T12:09:14.794Z,41.80
2018-07-14T12:11:47.083Z,42.80
2018-07-14T12:14:19.652Z,42.90
2018-07-14T12:16:52.034Z,43.30
2018-07-14T12:19:24.596Z,43.80
2018-07-14T12:21:56.980Z,44.00
2018-07-14T12:24:29.363Z,44.10
2018-07-14T12:27:02.148Z,43.90
2018-07-14T12:29:34.542Z,44.30
2018-07-14T12:32:06.896Z,44.30
2018-07-14T12:34:39.000Z,44.10
2018-07-14T12:37:11.496Z,44.50
2018-07-14T12:39:43.858Z,44.90
2018-07-14T12:42:16.062Z,44.50
2018-07-14T12:44:48.159Z,45.00
2018-07-14T12:47:20.668Z,45.00
2018-07-14T12:49:52.959Z,45.40
2018-07-14T12:52:25.473Z,45.50
2018-07-14T12:54:57.807Z,45.60
2018-07-14T12:57:29.959Z,46.30
2018-07-14T13:00:02.318Z,46.50
2018-07-14T13:02:34.729Z,47.60
2018-07-14T13:05:07.000Z,47.70
2018-07-14T13:07:39.302Z,48.00
2018-07-14T13:10:11.996Z,47.70
2018-07-14T13:12:44.685Z,48.30
2018-07-14T13:15:17.239Z,48.10
2018-07-14T13:17:49.571Z,48.30
2018-07-14T13:20:21.983Z,48.20
2018-07-14T13:22:55.185Z,48.70
2018-07-14T13:25:27.701Z,48.70
2018-07-14T13:28:00.216Z,49.10
2018-07-14T13:30:32.883Z,48.60
2018-07-14T13:33:05.217Z,48.60
2018-07-14T13:35:37.795Z,48.60
2018-07-14T13:38:09.955Z,48.50
2018-07-14T13:40:42.409Z,48.50
2018-07-14T13:43:14.687Z,48.20
2018-07-14T13:45:46.921Z,47.80
2018-07-14T13:48:19.430Z,47.50
2018-07-14T13:50:51.896Z,46.90
2018-07-14T13:53:24.196Z,46.40
2018-07-14T13:55:56.589Z,46.50
2018-07-14T13:58:29.161Z,46.50
2018-07-14T14:01:01.727Z,46.50
2018-07-14T14:03:34.287Z,45.50
2018-07-14T14:06:06.794Z,45.50
2018-07-14T14:08:39.296Z,45.60
2018-07-14T14:11:11.932Z,44.70
2018-07-14T14:13:44.052Z,44.50
2018-07-14T14:16:16.361Z,43.30
2018-07-14T14:18:48.875Z,44.00
2018-07-14T14:21:21.813Z,42.90
2018-07-14T14:23:54.147Z,42.40
2018-07-14T14:26:26.575Z,42.20
2018-07-14T14:28:58.937Z,43.00
2018-07-14T14:31:31.360Z,41.30
2018-07-14T14:34:03.706Z,41.90
2018-07-14T14:36:36.102Z,40.40
2018-07-14T14:39:09.424Z,40.90
2018-07-14T14:41:41.821Z,40.70
2018-07-14T14:44:14.180Z,39.80
2018-07-14T14:46:46.429Z,39.00
2018-07-14T14:49:18.715Z,39.60
2018-07-14T14:51:50.935Z,39.20
2018-07-14T14:54:23.286Z,37.40
2018-07-14T14:56:55.830Z,36.40
2018-07-14T14:59:28.289Z,36.80
2018-07-14T15:02:00.788Z,36.70
2018-07-14T15:04:33.237Z,36.10
2018-07-14T15:07:05.593Z,35.40
2018-07-14T15:09:37.899Z,33.50
2018-07-14T15:12:10.104Z,32.00
2018-07-14T15:14:42.397Z,28.40
2018-07-14T15:17:14.814Z,25.80
2018-07-14T15:19:47.763Z,23.70
2018-07-14T15:22:20.432Z,22.80
2018-07-14T15:24:52.562Z,21.40
2018-07-14T15:27:25.209Z,20.20
2018-07-14T15:29:58.293Z,19.50
2018-07-14T15:32:30.866Z,17.10
2018-07-14T15:35:03.684Z,14.50
2018-07-14T15:37:36.035Z,12.40
2018-07-14T15:40:08.428Z,10.90
2018-07-14T15:42:40.773Z,9.60
2018-07-14T15:45:14.488Z,7.20
2018-07-14T15:47:46.868Z,6.20
2018-07-14T15:50:19.224Z,4.10
2018-07-14T15:52:51.430Z,2.80
2018-07-14T15:55:23.877Z,3.30
2018-07-14T15:57:56.455Z,2.90
2018-07-14T16:00:28.803Z,2.90
2018-07-14T16:03:01.345Z,1.80
2018-07-14T16:05:33.731Z,2.10
2018-07-14T16:08:06.097Z,1.00
2018-07-14T16:10:38.244Z,1.00
2018-07-14T16:15:42.117Z,1.00
2018-07-14T16:18:14.515Z,1.00
2018-07-14T16:20:46.674Z,1.00
2018-07-14T16:23:20.117Z,1.00
2018-07-14T16:25:52.421Z,1.00
2018-07-14T16:28:24.879Z,1.00
2018-07-14T16:30:57.225Z,1.00
2018-07-14T16:33:29.443Z,1.00
2018-07-14T16:36:01.644Z,1.00
2018-07-14T16:41:05.310Z,1.00
2018-07-14T16:43:37.768Z,1.00
2018-07-14T16:46:10.590Z,1.00
2018-07-14T16:48:42.747Z,1.00
2018-07-14T16:51:15.494Z,1.00
2018-07-14T16:53:47.842Z,1.00
2018-07-14T16:56:20.014Z,1.00
2018-07-14T16:58:52.553Z,1.00
2018-07-14T17:01:25.114Z,1.00
2018-07-14T17:03:57.756Z,1.00
2018-07-14T17:06:30.099Z,1.00
2018-07-14T17:11:33.994Z,1.00
2018-07-14T17:14:06.396Z,1.00
2018-07-14T17:16:39.422Z,1.00
2018-07-14T17:19:12.157Z,1.00
2018-07-14T17:21:44.472Z,1.00
2018-07-14T17:24:17.567Z,1.00
2018-07-14T17:26:50.438Z,1.00
2018-07-14T17:29:22.937Z,1.00
2018-07-14T17:31:55.375Z,1.00
2018-07-14T17:34:27.938Z,1.00
2018-07-14T17:39:31.230Z,1.00
2018-07-14T17:44:35.032Z,1.00
2018-07-14T17:47:07.558Z,1.00
2018-07-14T17:49:40.187Z,1.00
2018-07-14T17:52:12.674Z,1.00
2018-07-14T17:54:44.941Z,1.00
2018-07-14T17:57:17.335Z,1.00
2018-07-14T17:59:49.909Z,1.00
2018-07-14T18:02:22.294Z,1.00
2018-07-14T18:04:54.952Z,1.00
2018-07-14T18:07:27.112Z,1.00
2018-07-14T18:09:59.734Z,1.00
2018-07-14T18:12:32.300Z,1.00
2018-07-14T18:15:04.889Z,1.00
2018-07-14T18:17:37.312Z,1.00
2018-07-14T18:20:09.455Z,1.00
2018-07-14T18:22:41.860Z,1.00
2018-07-14T18:25:14.423Z,1.00
2018-07-14T18:27:47.199Z,1.00
2018-07-14T18:30:19.566Z,1.00
2018-07-14T18:32:52.150Z,1.00
2018-07-14T18:35:24.729Z,1.00
2018-07-14T18:37:57.017Z,1.00
2018-07-14T18:40:29.347Z,1.00
2018-07-14T18:43:01.783Z,1.00
2018-07-14T18:45:34.115Z,1.00
2018-07-14T18:48:06.754Z,1.00
2018-07-14T18:50:39.863Z,1.00
2018-07-14T18:53:12.356Z,1.00
2018-07-14T18:55:44.514Z,1.00
2018-07-14T18:58:16.866Z,1.00
2018-07-14T19:00:49.270Z,1.00
2018-07-14T19:03:21.812Z,1.00
2018-07-14T19:05:54.194Z,1.00
2018-07-14T19:08:26.794Z,1.00
2018-07-14T19:10:59.119Z,1.00
2018-07-14T19:13:31.344Z,1.00
2018-07-14T19:16:03.899Z,1.00
2018-07-14T19:18:36.289Z,1.00
2018-07-14T19:21:08.521Z,1.00
2018-07-14T19:23:41.500Z,1.00
2018-07-14T19:26:14.135Z,1.00
2018-07-14T19:28:46.890Z,1.00
2018-07-14T19:31:19.065Z,1.00
2018-07-14T19:33:51.621Z,1.00
2018-07-14T19:36:24.354Z,1.00
2018-07-14T19:38:56.746Z,1.00
2018-07-14T19:41:29.196Z,1.00
2018-07-14T19:44:01.569Z,1.00
2018-07-14T19:46:33.928Z,1.00
2018-07-14T19:49:06.728Z,1.00
2018-07-14T19:51:39.160Z,1.00
2018-07-14T19:56:43.029Z,1.00
2018-07-14T19:59:15.173Z,1.00
2018-07-14T20:01:47.739Z,1.00
2018-07-14T20:04:20.037Z,1.00
2018-07-14T20:06:52.275Z,1.00
2018-07-14T20:09:24.550Z,1.00
2018-07-14T20:11:56.680Z,1.00
2018-07-14T20:14:29.300Z,1.00
2018-07-14T20:17:01.856Z,1.00
2018-07-14T20:19:34.498Z,1.00
2018-07-14T20:22:07.041Z,1.00
2018-07-14T20:24:39.585Z,1.00
2018-07-14T20:27:12.987Z,1.00
2018-07-14T20:29:45.100Z,1.00
2018-07-14T20:32:17.576Z,1.00
2018-07-14T20:34:49.965Z,1.00
2018-07-14T20:37:22.354Z,1.00
2018-07-14T20:39:54.536Z,1.00
2018-07-14T20:42:27.143Z,1.00
2018-07-14T20:44:59.762Z,1.00
2018-07-14T20:47:32.378Z,1.00
2018-07-14T20:50:04.984Z,1.00
2018-07-14T20:52:37.299Z,1.00
2018-07-14T20:55:10.057Z,1.00
2018-07-14T20:57:42.707Z,1.00
2018-07-14T21:00:15.149Z,1.10
2018-07-14T21:05:18.710Z,1.00
2018-07-14T21:07:51.331Z,1.00
2018-07-14T21:12:54.900Z,1.00
2018-07-14T21:15:27.320Z,1.00
2018-07-14T21:17:59.790Z,1.60
2018-07-14T21:20:31.980Z,1.00
2018-07-14T21:23:04.524Z,1.00
2018-07-14T21:25:36.857Z,1.00
2018-07-14T21:28:09.474Z,1.00
2018-07-14T21:30:41.690Z,1.00
2018-07-14T21:33:13.902Z,1.00
2018-07-14T21:38:17.997Z,1.00
2018-07-14T21:40:50.272Z,1.00
2018-07-14T21:43:22.939Z,1.00
2018-07-14T21:45:55.691Z,1.00
2018-07-14T21:48:28.051Z,1.00
2018-07-14T21:51:00.187Z,1.00
2018-07-14T21:53:32.929Z,1.00
2018-07-14T21:56:05.424Z,1.00
2018-07-14T21:58:37.832Z,1.00
2018-07-14T22:03:45.992Z,1.00
2018-07-14T22:06:18.332Z,1.00
2018-07-14T22:08:50.793Z,1.00
2018-07-14T22:13:54.257Z,1.00
2018-07-14T22:16:27.385Z,1.00
2018-07-14T22:18:59.997Z,1.00
2018-07-14T22:21:32.414Z,1.00
2018-07-14T22:24:05.741Z,1.00
2018-07-14T22:26:38.261Z,1.00
2018-07-14T22:29:11.110Z,1.00
2018-07-14T22:31:43.896Z,1.00
2018-07-14T22:34:16.436Z,1.00
2018-07-14T22:36:48.784Z,1.00
2018-07-14T22:39:21.232Z,1.00
2018-07-14T22:41:53.638Z,1.00
2018-07-14T22:44:26.356Z,1.00
2018-07-14T22:46:58.761Z,1.00
2018-07-14T22:49:31.126Z,1.00
2018-07-14T22:52:03.305Z,1.00
2018-07-14T22:54:35.786Z,1.00
2018-07-14T22:57:08.365Z,1.00
2018-07-14T22:59:40.692Z,1.00
2018-07-14T23:02:13.238Z,1.00
2018-07-14T23:04:46.442Z,1.00
2018-07-14T23:07:18.842Z,1.00
2018-07-14T23:09:51.244Z,1.00
2018-07-14T23:12:23.164Z,1.00
2018-07-14T23:14:55.730Z,1.00
2018-07-14T23:17:28.167Z,1.00
2018-07-14T23:20:00.405Z,1.00
2018-07-14T23:22:33.052Z,1.00
2018-07-14T23:25:05.652Z,1.00
2018-07-14T23:27:38.067Z,1.00
2018-07-14T23:30:10.814Z,1.00
2018-07-14T23:32:43.348Z,1.00
2018-07-14T23:35:15.726Z,1.00
2018-07-14T23:37:48.099Z,1.00
2018-07-14T23:40:20.583Z,1.00
2018-07-14T23:42:52.735Z,1.00
2018-07-14T23:45:25.513Z,1.00
2018-07-14T23:47:57.879Z,1.00
2018-07-14T23:50:30.301Z,1.00
2018-07-14T23:53:02.438Z,1.00
2018-07-14T23:55:34.804Z,1.00
2018-07-14T23:58:07.249Z,1.00
